sensor_id;sensor_type;location;lat;lon;timestamp;temperature;humidity
17797;DHT22;55596;53.554;9.916;2022-08-01T00:01:47;17.60;99.90
17797;DHT22;55596;53.554;9.916;2022-08-01T00:04:14;17.60;99.90
17797;DHT22;55596;53.554;9.916;2022-08-01T00:06:42;17.60;99.90
17797;DHT22;55596;53.554;9.916;2022-08-01T00:09:09;17.60;99.90
17797;DHT22;55596;53.554;9.916;2022-08-01T00:11:36;17.60;99.90
17797;DHT22;55596;53.554;9.916;2022-08-01T00:14:03;17.50;99.90
17797;DHT22;55596;53.554;9.916;2022-08-01T00:16:30;17.60;99.90
17797;DHT22;55596;53.554;9.916;2022-08-01T00:18:57;17.50;99.90
17797;DHT22;55596;53.554;9.916;2022-08-01T00:21:23;17.50;99.90
17797;DHT22;55596;53.554;9.916;2022-08-01T00:23:52;17.50;99.90
17797;DHT22;55596;53.554;9.916;2022-08-01T00:26:18;17.50;99.90
17797;DHT22;55596;53.554;9.916;2022-08-01T00:28:46;17.50;99.90
17797;DHT22;55596;53.554;9.916;2022-08-01T00:31:12;17.50;99.90
17797;DHT22;55596;53.554;9.916;2022-08-01T00:36:06;17.40;99.90
17797;DHT22;55596;53.554;9.916;2022-08-01T00:38:33;17.60;99.90
17797;DHT22;55596;53.554;9.916;2022-08-01T00:41:01;17.50;99.90
17797;DHT22;55596;53.554;9.916;2022-08-01T00:43:28;17.50;99.90
17797;DHT22;55596;53.554;9.916;2022-08-01T00:45:55;17.60;99.90
17797;DHT22;55596;53.554;9.916;2022-08-01T00:48:22;17.60;99.90
17797;DHT22;55596;53.554;9.916;2022-08-01T00:50:49;17.60;99.90
17797;DHT22;55596;53.554;9.916;2022-08-01T00:53:16;17.50;99.90
17797;DHT22;55596;53.554;9.916;2022-08-01T00:55:43;17.60;99.90
17797;DHT22;55596;53.554;9.916;2022-08-01T00:58:11;17.60;99.90
17797;DHT22;55596;53.554;9.916;2022-08-01T01:00:38;17.50;99.90
17797;DHT22;55596;53.554;9.916;2022-08-01T01:03:05;17.40;99.90
17797;DHT22;55596;53.554;9.916;2022-08-01T01:05:39;17.50;99.90
17797;DHT22;55596;53.554;9.916;2022-08-01T01:08:10;17.50;99.90
17797;DHT22;55596;53.554;9.916;2022-08-01T01:10:42;17.60;99.90
17797;DHT22;55596;53.554;9.916;2022-08-01T01:13:20;17.60;99.90
17797;DHT22;55596;53.554;9.916;2022-08-01T01:15:51;17.50;99.90
17797;DHT22;55596;53.554;9.916;2022-08-01T01:18:23;17.50;99.90
17797;DHT22;55596;53.554;9.916;2022-08-01T01:20:56;17.50;99.90
17797;DHT22;55596;53.554;9.916;2022-08-01T01:23:34;17.50;99.90
17797;DHT22;55596;53.554;9.916;2022-08-01T01:26:17;17.50;99.90
17797;DHT22;55596;53.554;9.916;2022-08-01T01:29:08;17.60;99.90
17797;DHT22;55596;53.554;9.916;2022-08-01T01:31:42;17.50;99.90
17797;DHT22;55596;53.554;9.916;2022-08-01T01:34:12;17.40;99.90
17797;DHT22;55596;53.554;9.916;2022-08-01T01:36:40;17.50;99.90
17797;DHT22;55596;53.554;9.916;2022-08-01T01:39:08;17.50;99.90
17797;DHT22;55596;53.554;9.916;2022-08-01T01:41:36;17.40;99.90
17797;DHT22;55596;53.554;9.916;2022-08-01T01:44:06;17.70;99.90
17797;DHT22;55596;53.554;9.916;2022-08-01T01:46:34;17.50;99.90
17797;DHT22;55596;53.554;9.916;2022-08-01T01:49:03;17.50;99.90
17797;DHT22;55596;53.554;9.916;2022-08-01T01:51:35;17.50;99.90
17797;DHT22;55596;53.554;9.916;2022-08-01T01:54:05;17.50;99.90
17797;DHT22;55596;53.554;9.916;2022-08-01T01:56:33;17.50;99.90
17797;DHT22;55596;53.554;9.916;2022-08-01T01:59:18;17.40;99.90
17797;DHT22;55596;53.554;9.916;2022-08-01T02:01:46;17.40;99.90
17797;DHT22;55596;53.554;9.916;2022-08-01T02:04:14;17.40;99.90
17797;DHT22;55596;53.554;9.916;2022-08-01T02:06:42;17.40;99.90
17797;DHT22;55596;53.554;9.916;2022-08-01T02:09:10;17.40;99.90
17797;DHT22;55596;53.554;9.916;2022-08-01T02:11:38;17.40;99.90
17797;DHT22;55596;53.554;9.916;2022-08-01T02:14:07;17.40;99.90
17797;DHT22;55596;53.554;9.916;2022-08-01T02:16:37;17.40;99.90
17797;DHT22;55596;53.554;9.916;2022-08-01T02:19:06;17.30;99.90
17797;DHT22;55596;53.554;9.916;2022-08-01T02:21:37;17.30;99.90
17797;DHT22;55596;53.554;9.916;2022-08-01T02:24:09;17.40;99.90
17797;DHT22;55596;53.554;9.916;2022-08-01T02:26:39;17.30;99.90
17797;DHT22;55596;53.554;9.916;2022-08-01T02:29:07;17.30;99.90
17797;DHT22;55596;53.554;9.916;2022-08-01T02:31:39;17.30;99.90
17797;DHT22;55596;53.554;9.916;2022-08-01T02:34:14;17.30;99.90
17797;DHT22;55596;53.554;9.916;2022-08-01T02:36:44;17.20;99.90
17797;DHT22;55596;53.554;9.916;2022-08-01T02:39:14;17.20;99.90
17797;DHT22;55596;53.554;9.916;2022-08-01T02:41:43;17.20;99.90
17797;DHT22;55596;53.554;9.916;2022-08-01T02:44:13;17.30;99.90
17797;DHT22;55596;53.554;9.916;2022-08-01T02:46:47;17.20;99.90
17797;DHT22;55596;53.554;9.916;2022-08-01T02:49:16;17.20;99.90
17797;DHT22;55596;53.554;9.916;2022-08-01T02:51:46;17.30;99.90
17797;DHT22;55596;53.554;9.916;2022-08-01T02:54:15;17.30;99.90
17797;DHT22;55596;53.554;9.916;2022-08-01T02:56:44;17.30;99.90
17797;DHT22;55596;53.554;9.916;2022-08-01T02:59:15;17.30;99.90
17797;DHT22;55596;53.554;9.916;2022-08-01T03:01:45;17.30;99.90
17797;DHT22;55596;53.554;9.916;2022-08-01T03:04:14;17.20;99.90
17797;DHT22;55596;53.554;9.916;2022-08-01T03:06:44;17.30;99.90
17797;DHT22;55596;53.554;9.916;2022-08-01T03:09:13;17.20;99.90
17797;DHT22;55596;53.554;9.916;2022-08-01T03:11:41;17.30;99.90
17797;DHT22;55596;53.554;9.916;2022-08-01T03:14:10;17.30;99.90
17797;DHT22;55596;53.554;9.916;2022-08-01T03:16:39;17.30;99.90
17797;DHT22;55596;53.554;9.916;2022-08-01T03:19:11;17.20;99.90
17797;DHT22;55596;53.554;9.916;2022-08-01T03:21:39;17.20;99.90
17797;DHT22;55596;53.554;9.916;2022-08-01T03:24:08;17.20;99.90
17797;DHT22;55596;53.554;9.916;2022-08-01T03:26:38;17.10;99.90
17797;DHT22;55596;53.554;9.916;2022-08-01T03:29:08;17.20;99.90
17797;DHT22;55596;53.554;9.916;2022-08-01T03:31:38;17.20;99.90
17797;DHT22;55596;53.554;9.916;2022-08-01T03:34:09;17.20;99.90
17797;DHT22;55596;53.554;9.916;2022-08-01T03:36:44;17.20;99.90
17797;DHT22;55596;53.554;9.916;2022-08-01T03:39:12;17.20;99.90
17797;DHT22;55596;53.554;9.916;2022-08-01T03:41:43;17.10;99.90
17797;DHT22;55596;53.554;9.916;2022-08-01T03:44:14;17.20;99.90
17797;DHT22;55596;53.554;9.916;2022-08-01T03:46:44;17.10;99.90
17797;DHT22;55596;53.554;9.916;2022-08-01T03:49:17;17.20;99.90
17797;DHT22;55596;53.554;9.916;2022-08-01T03:51:48;17.20;99.90
17797;DHT22;55596;53.554;9.916;2022-08-01T03:54:17;17.10;99.90
17797;DHT22;55596;53.554;9.916;2022-08-01T03:56:48;17.20;99.90
17797;DHT22;55596;53.554;9.916;2022-08-01T03:59:17;17.10;99.90
17797;DHT22;55596;53.554;9.916;2022-08-01T04:01:47;17.20;99.90
17797;DHT22;55596;53.554;9.916;2022-08-01T04:04:16;17.20;99.90
17797;DHT22;55596;53.554;9.916;2022-08-01T04:06:43;17.30;99.90
17797;DHT22;55596;53.554;9.916;2022-08-01T04:09:11;17.20;99.90
17797;DHT22;55596;53.554;9.916;2022-08-01T04:11:39;17.20;99.90
17797;DHT22;55596;53.554;9.916;2022-08-01T04:14:06;17.30;99.90
17797;DHT22;55596;53.554;9.916;2022-08-01T04:16:33;17.20;99.90
17797;DHT22;55596;53.554;9.916;2022-08-01T04:19:00;17.30;99.90
17797;DHT22;55596;53.554;9.916;2022-08-01T04:21:30;17.30;99.90
17797;DHT22;55596;53.554;9.916;2022-08-01T04:24:01;17.20;99.90
17797;DHT22;55596;53.554;9.916;2022-08-01T04:26:31;17.20;99.90
17797;DHT22;55596;53.554;9.916;2022-08-01T04:29:00;17.20;99.90
17797;DHT22;55596;53.554;9.916;2022-08-01T04:31:29;17.30;99.90
17797;DHT22;55596;53.554;9.916;2022-08-01T04:33:58;17.40;99.90
17797;DHT22;55596;53.554;9.916;2022-08-01T04:36:28;17.10;99.90
17797;DHT22;55596;53.554;9.916;2022-08-01T04:38:59;17.10;99.90
17797;DHT22;55596;53.554;9.916;2022-08-01T04:41:27;17.30;99.90
17797;DHT22;55596;53.554;9.916;2022-08-01T04:43:57;17.30;99.90
17797;DHT22;55596;53.554;9.916;2022-08-01T04:46:25;17.40;99.90
17797;DHT22;55596;53.554;9.916;2022-08-01T04:48:53;17.30;99.90
17797;DHT22;55596;53.554;9.916;2022-08-01T04:53:50;17.40;99.90
17797;DHT22;55596;53.554;9.916;2022-08-01T05:01:12;17.20;99.90
17797;DHT22;55596;53.554;9.916;2022-08-01T05:03:39;17.30;99.90
17797;DHT22;55596;53.554;9.916;2022-08-01T05:06:06;17.20;99.90
17797;DHT22;55596;53.554;9.916;2022-08-01T05:11:03;17.10;99.90
17797;DHT22;55596;53.554;9.916;2022-08-01T05:15:57;17.20;99.90
17797;DHT22;55596;53.554;9.916;2022-08-01T05:18:23;17.20;99.90
17797;DHT22;55596;53.554;9.916;2022-08-01T05:20:50;17.10;99.90
17797;DHT22;55596;53.554;9.916;2022-08-01T05:23:17;17.30;99.90
17797;DHT22;55596;53.554;9.916;2022-08-01T05:25:44;17.20;99.90
17797;DHT22;55596;53.554;9.916;2022-08-01T05:28:12;17.40;99.90
17797;DHT22;55596;53.554;9.916;2022-08-01T05:30:39;17.40;99.90
17797;DHT22;55596;53.554;9.916;2022-08-01T05:33:06;17.30;99.90
17797;DHT22;55596;53.554;9.916;2022-08-01T05:35:34;17.40;99.90
17797;DHT22;55596;53.554;9.916;2022-08-01T05:38:01;17.40;99.90
17797;DHT22;55596;53.554;9.916;2022-08-01T05:40:28;17.30;99.90
17797;DHT22;55596;53.554;9.916;2022-08-01T05:42:55;17.40;99.90
17797;DHT22;55596;53.554;9.916;2022-08-01T05:45:23;17.40;99.90
17797;DHT22;55596;53.554;9.916;2022-08-01T05:47:50;17.50;99.90
17797;DHT22;55596;53.554;9.916;2022-08-01T05:50:19;17.30;99.90
17797;DHT22;55596;53.554;9.916;2022-08-01T05:55:13;17.30;99.90
17797;DHT22;55596;53.554;9.916;2022-08-01T05:57:40;17.20;99.90
17797;DHT22;55596;53.554;9.916;2022-08-01T06:00:08;17.20;99.90
17797;DHT22;55596;53.554;9.916;2022-08-01T06:02:41;17.30;99.90
17797;DHT22;55596;53.554;9.916;2022-08-01T06:05:09;17.30;99.90
17797;DHT22;55596;53.554;9.916;2022-08-01T06:07:36;17.30;99.90
17797;DHT22;55596;53.554;9.916;2022-08-01T06:10:05;17.20;99.90
17797;DHT22;55596;53.554;9.916;2022-08-01T06:12:33;17.30;99.90
17797;DHT22;55596;53.554;9.916;2022-08-01T06:14:59;17.40;99.90
17797;DHT22;55596;53.554;9.916;2022-08-01T06:17:26;17.50;99.90
17797;DHT22;55596;53.554;9.916;2022-08-01T06:19:55;17.50;99.90
17797;DHT22;55596;53.554;9.916;2022-08-01T06:22:22;17.70;99.90
17797;DHT22;55596;53.554;9.916;2022-08-01T06:24:48;17.70;99.90
17797;DHT22;55596;53.554;9.916;2022-08-01T06:27:15;17.60;99.90
17797;DHT22;55596;53.554;9.916;2022-08-01T06:29:42;17.70;99.90
17797;DHT22;55596;53.554;9.916;2022-08-01T06:32:09;18.00;99.90
17797;DHT22;55596;53.554;9.916;2022-08-01T06:34:36;17.70;99.90
17797;DHT22;55596;53.554;9.916;2022-08-01T06:37:04;17.90;99.90
17797;DHT22;55596;53.554;9.916;2022-08-01T06:41:58;17.90;99.90
17797;DHT22;55596;53.554;9.916;2022-08-01T06:46:52;17.90;99.90
17797;DHT22;55596;53.554;9.916;2022-08-01T06:49:19;18.10;99.90
17797;DHT22;55596;53.554;9.916;2022-08-01T06:54:15;18.00;99.90
17797;DHT22;55596;53.554;9.916;2022-08-01T06:56:42;18.40;99.90
17797;DHT22;55596;53.554;9.916;2022-08-01T06:59:09;18.50;99.90
17797;DHT22;55596;53.554;9.916;2022-08-01T07:01:36;18.80;99.90
17797;DHT22;55596;53.554;9.916;2022-08-01T07:06:30;19.30;99.90
17797;DHT22;55596;53.554;9.916;2022-08-01T07:08:57;19.60;99.90
17797;DHT22;55596;53.554;9.916;2022-08-01T07:11:27;19.50;99.90
17797;DHT22;55596;53.554;9.916;2022-08-01T07:16:22;19.70;99.90
17797;DHT22;55596;53.554;9.916;2022-08-01T07:21:16;19.50;99.90
17797;DHT22;55596;53.554;9.916;2022-08-01T07:26:10;19.20;99.90
17797;DHT22;55596;53.554;9.916;2022-08-01T07:28:39;20.40;99.90
17797;DHT22;55596;53.554;9.916;2022-08-01T07:31:06;19.00;99.90
17797;DHT22;55596;53.554;9.916;2022-08-01T07:33:33;19.00;99.90
17797;DHT22;55596;53.554;9.916;2022-08-01T07:36:00;19.20;99.90
17797;DHT22;55596;53.554;9.916;2022-08-01T07:38:26;19.40;99.90
17797;DHT22;55596;53.554;9.916;2022-08-01T07:40:53;17.80;99.90
17797;DHT22;55596;53.554;9.916;2022-08-01T07:43:20;19.60;99.90
17797;DHT22;55596;53.554;9.916;2022-08-01T07:45:48;19.60;99.90
17797;DHT22;55596;53.554;9.916;2022-08-01T07:50:42;19.60;99.90
17797;DHT22;55596;53.554;9.916;2022-08-01T07:53:09;19.80;99.90
17797;DHT22;55596;53.554;9.916;2022-08-01T07:55:36;20.00;99.90
17797;DHT22;55596;53.554;9.916;2022-08-01T07:58:03;20.30;99.90
17797;DHT22;55596;53.554;9.916;2022-08-01T08:00:30;20.20;99.90
17797;DHT22;55596;53.554;9.916;2022-08-01T08:02:59;20.10;99.90
17797;DHT22;55596;53.554;9.916;2022-08-01T08:05:26;19.90;99.90
17797;DHT22;55596;53.554;9.916;2022-08-01T08:07:53;19.90;99.90
17797;DHT22;55596;53.554;9.916;2022-08-01T08:10:20;20.20;99.90
17797;DHT22;55596;53.554;9.916;2022-08-01T08:12:47;20.00;99.90
17797;DHT22;55596;53.554;9.916;2022-08-01T08:20:10;20.10;99.90
17797;DHT22;55596;53.554;9.916;2022-08-01T08:22:37;20.10;99.90
17797;DHT22;55596;53.554;9.916;2022-08-01T08:25:06;20.40;99.90
17797;DHT22;55596;53.554;9.916;2022-08-01T08:27:33;20.10;99.90
17797;DHT22;55596;53.554;9.916;2022-08-01T08:30:00;19.80;99.90
17797;DHT22;55596;53.554;9.916;2022-08-01T08:32:26;20.00;99.90
17797;DHT22;55596;53.554;9.916;2022-08-01T08:34:53;19.20;99.90
17797;DHT22;55596;53.554;9.916;2022-08-01T08:37:21;19.10;99.90
17797;DHT22;55596;53.554;9.916;2022-08-01T08:39:48;19.10;99.90
17797;DHT22;55596;53.554;9.916;2022-08-01T08:42:15;19.00;99.90
17797;DHT22;55596;53.554;9.916;2022-08-01T08:44:42;18.90;99.90
17797;DHT22;55596;53.554;9.916;2022-08-01T08:47:11;18.90;99.90
17797;DHT22;55596;53.554;9.916;2022-08-01T08:49:38;19.00;99.90
17797;DHT22;55596;53.554;9.916;2022-08-01T08:52:06;18.80;99.90
17797;DHT22;55596;53.554;9.916;2022-08-01T08:54:36;18.90;99.90
17797;DHT22;55596;53.554;9.916;2022-08-01T08:57:05;18.80;99.90
17797;DHT22;55596;53.554;9.916;2022-08-01T08:59:32;19.00;99.90
17797;DHT22;55596;53.554;9.916;2022-08-01T09:01:59;19.10;99.90
17797;DHT22;55596;53.554;9.916;2022-08-01T09:04:26;18.80;99.90
17797;DHT22;55596;53.554;9.916;2022-08-01T09:06:53;19.10;99.90
17797;DHT22;55596;53.554;9.916;2022-08-01T09:09:21;19.20;99.90
17797;DHT22;55596;53.554;9.916;2022-08-01T09:11:49;19.20;99.90
17797;DHT22;55596;53.554;9.916;2022-08-01T09:14:18;19.40;99.90
17797;DHT22;55596;53.554;9.916;2022-08-01T09:16:59;19.50;99.90
17797;DHT22;55596;53.554;9.916;2022-08-01T09:19:34;19.60;99.90
17797;DHT22;55596;53.554;9.916;2022-08-01T09:22:04;19.80;99.90
17797;DHT22;55596;53.554;9.916;2022-08-01T09:24:33;20.30;99.90
17797;DHT22;55596;53.554;9.916;2022-08-01T09:27:01;20.20;99.90
17797;DHT22;55596;53.554;9.916;2022-08-01T09:29:41;20.80;99.90
17797;DHT22;55596;53.554;9.916;2022-08-01T09:32:10;21.10;99.90
17797;DHT22;55596;53.554;9.916;2022-08-01T09:34:37;21.30;99.90
17797;DHT22;55596;53.554;9.916;2022-08-01T09:37:04;21.20;99.90
17797;DHT22;55596;53.554;9.916;2022-08-01T09:39:33;21.30;99.90
17797;DHT22;55596;53.554;9.916;2022-08-01T09:42:21;21.10;99.90
17797;DHT22;55596;53.554;9.916;2022-08-01T09:44:48;21.20;99.90
17797;DHT22;55596;53.554;9.916;2022-08-01T09:47:16;21.00;99.90
17797;DHT22;55596;53.554;9.916;2022-08-01T09:49:53;21.00;99.90
17797;DHT22;55596;53.554;9.916;2022-08-01T09:52:22;21.10;99.90
17797;DHT22;55596;53.554;9.916;2022-08-01T09:54:53;21.00;99.90
17797;DHT22;55596;53.554;9.916;2022-08-01T09:57:21;20.80;99.90
17797;DHT22;55596;53.554;9.916;2022-08-01T09:59:50;20.60;99.90
17797;DHT22;55596;53.554;9.916;2022-08-01T10:02:28;20.50;99.90
17797;DHT22;55596;53.554;9.916;2022-08-01T10:04:55;20.40;99.90
17797;DHT22;55596;53.554;9.916;2022-08-01T10:07:22;20.30;99.90
17797;DHT22;55596;53.554;9.916;2022-08-01T10:09:49;20.10;99.90
17797;DHT22;55596;53.554;9.916;2022-08-01T10:12:18;20.30;99.90
17797;DHT22;55596;53.554;9.916;2022-08-01T10:14:48;20.20;99.90
17797;DHT22;55596;53.554;9.916;2022-08-01T10:17:17;20.40;99.90
17797;DHT22;55596;53.554;9.916;2022-08-01T10:19:45;20.50;99.90
17797;DHT22;55596;53.554;9.916;2022-08-01T10:22:13;20.60;99.90
17797;DHT22;55596;53.554;9.916;2022-08-01T10:24:43;20.70;99.90
17797;DHT22;55596;53.554;9.916;2022-08-01T10:27:14;20.80;99.90
17797;DHT22;55596;53.554;9.916;2022-08-01T10:29:43;20.90;99.90
17797;DHT22;55596;53.554;9.916;2022-08-01T10:32:13;21.00;99.90
17797;DHT22;55596;53.554;9.916;2022-08-01T10:34:42;20.80;99.90
17797;DHT22;55596;53.554;9.916;2022-08-01T10:37:09;20.60;99.90
17797;DHT22;55596;53.554;9.916;2022-08-01T10:39:37;20.70;99.90
17797;DHT22;55596;53.554;9.916;2022-08-01T10:42:06;20.70;99.90
17797;DHT22;55596;53.554;9.916;2022-08-01T10:44:36;20.90;99.90
17797;DHT22;55596;53.554;9.916;2022-08-01T10:47:08;20.90;99.90
17797;DHT22;55596;53.554;9.916;2022-08-01T10:49:43;20.80;99.90
17797;DHT22;55596;53.554;9.916;2022-08-01T10:52:15;20.70;99.90
17797;DHT22;55596;53.554;9.916;2022-08-01T10:54:42;20.70;99.90
17797;DHT22;55596;53.554;9.916;2022-08-01T10:57:09;20.70;99.90
17797;DHT22;55596;53.554;9.916;2022-08-01T10:59:47;21.00;99.90
17797;DHT22;55596;53.554;9.916;2022-08-01T11:02:29;24.00;99.90
17797;DHT22;55596;53.554;9.916;2022-08-01T11:05:01;21.20;99.90
17797;DHT22;55596;53.554;9.916;2022-08-01T11:07:43;21.10;99.90
17797;DHT22;55596;53.554;9.916;2022-08-01T11:10:22;21.10;99.90
17797;DHT22;55596;53.554;9.916;2022-08-01T11:12:49;21.00;99.90
17797;DHT22;55596;53.554;9.916;2022-08-01T11:15:21;21.30;99.90
17797;DHT22;55596;53.554;9.916;2022-08-01T11:17:52;21.30;99.90
17797;DHT22;55596;53.554;9.916;2022-08-01T11:20:22;21.50;99.90
17797;DHT22;55596;53.554;9.916;2022-08-01T11:23:22;21.70;99.90
17797;DHT22;55596;53.554;9.916;2022-08-01T11:26:10;21.80;99.90
17797;DHT22;55596;53.554;9.916;2022-08-01T11:28:37;21.90;99.90
17797;DHT22;55596;53.554;9.916;2022-08-01T11:31:27;22.00;99.90
17797;DHT22;55596;53.554;9.916;2022-08-01T11:33:54;21.90;99.90
17797;DHT22;55596;53.554;9.916;2022-08-01T11:36:23;22.20;99.90
17797;DHT22;55596;53.554;9.916;2022-08-01T11:39:11;22.50;99.90
17797;DHT22;55596;53.554;9.916;2022-08-01T11:41:39;22.90;99.90
17797;DHT22;55596;53.554;9.916;2022-08-01T11:44:07;23.30;99.90
17797;DHT22;55596;53.554;9.916;2022-08-01T11:46:48;23.50;99.90
17797;DHT22;55596;53.554;9.916;2022-08-01T11:49:34;24.10;99.90
17797;DHT22;55596;53.554;9.916;2022-08-01T11:52:13;24.60;99.90
17797;DHT22;55596;53.554;9.916;2022-08-01T11:54:43;25.10;99.90
17797;DHT22;55596;53.554;9.916;2022-08-01T11:57:11;25.60;99.90
17797;DHT22;55596;53.554;9.916;2022-08-01T11:59:41;26.50;99.90
17797;DHT22;55596;53.554;9.916;2022-08-01T12:02:19;27.30;97.30
17797;DHT22;55596;53.554;9.916;2022-08-01T12:04:48;27.50;92.70
17797;DHT22;55596;53.554;9.916;2022-08-01T12:07:18;28.60;93.40
17797;DHT22;55596;53.554;9.916;2022-08-01T12:09:45;28.60;76.80
17797;DHT22;55596;53.554;9.916;2022-08-01T12:12:16;28.60;75.10
17797;DHT22;55596;53.554;9.916;2022-08-01T12:14:53;28.50;77.70
17797;DHT22;55596;53.554;9.916;2022-08-01T12:17:28;28.30;87.00
17797;DHT22;55596;53.554;9.916;2022-08-01T12:19:55;28.70;83.30
17797;DHT22;55596;53.554;9.916;2022-08-01T12:22:23;28.90;76.40
17797;DHT22;55596;53.554;9.916;2022-08-01T12:24:51;28.00;76.40
17797;DHT22;55596;53.554;9.916;2022-08-01T12:27:26;27.60;86.00
17797;DHT22;55596;53.554;9.916;2022-08-01T12:29:54;28.20;78.70
17797;DHT22;55596;53.554;9.916;2022-08-01T12:32:23;28.00;73.20
17797;DHT22;55596;53.554;9.916;2022-08-01T12:34:51;28.60;83.40
17797;DHT22;55596;53.554;9.916;2022-08-01T12:37:18;29.00;80.00
17797;DHT22;55596;53.554;9.916;2022-08-01T12:39:47;29.40;75.60
17797;DHT22;55596;53.554;9.916;2022-08-01T12:42:14;29.80;70.60
17797;DHT22;55596;53.554;9.916;2022-08-01T12:44:44;29.60;65.60
17797;DHT22;55596;53.554;9.916;2022-08-01T12:47:12;29.40;65.50
17797;DHT22;55596;53.554;9.916;2022-08-01T12:49:42;29.90;65.90
17797;DHT22;55596;53.554;9.916;2022-08-01T12:52:10;30.90;65.80
17797;DHT22;55596;53.554;9.916;2022-08-01T12:55:01;31.50;65.10
17797;DHT22;55596;53.554;9.916;2022-08-01T12:57:28;31.70;60.40
17797;DHT22;55596;53.554;9.916;2022-08-01T13:00:09;31.60;59.10
17797;DHT22;55596;53.554;9.916;2022-08-01T13:02:37;31.10;59.10
17797;DHT22;55596;53.554;9.916;2022-08-01T13:05:05;31.10;52.30
17797;DHT22;55596;53.554;9.916;2022-08-01T13:07:41;30.90;58.40
17797;DHT22;55596;53.554;9.916;2022-08-01T13:10:10;30.70;59.00
17797;DHT22;55596;53.554;9.916;2022-08-01T13:12:38;30.20;59.00
17797;DHT22;55596;53.554;9.916;2022-08-01T13:15:26;29.70;58.20
17797;DHT22;55596;53.554;9.916;2022-08-01T13:17:54;29.30;58.80
17797;DHT22;55596;53.554;9.916;2022-08-01T13:20:25;29.30;59.50
17797;DHT22;55596;53.554;9.916;2022-08-01T13:22:52;29.20;59.70
17797;DHT22;55596;53.554;9.916;2022-08-01T13:25:21;30.00;62.00
17797;DHT22;55596;53.554;9.916;2022-08-01T13:27:48;30.60;57.60
17797;DHT22;55596;53.554;9.916;2022-08-01T13:30:16;30.50;55.30
17797;DHT22;55596;53.554;9.916;2022-08-01T13:32:44;31.00;55.40
17797;DHT22;55596;53.554;9.916;2022-08-01T13:35:23;31.40;56.80
17797;DHT22;55596;53.554;9.916;2022-08-01T13:37:50;31.00;55.80
17797;DHT22;55596;53.554;9.916;2022-08-01T13:40:25;31.00;55.20
17797;DHT22;55596;53.554;9.916;2022-08-01T13:42:52;30.80;51.70
17797;DHT22;55596;53.554;9.916;2022-08-01T13:45:21;30.60;55.80
17797;DHT22;55596;53.554;9.916;2022-08-01T13:47:47;30.80;54.50
17797;DHT22;55596;53.554;9.916;2022-08-01T13:50:15;30.90;55.50
17797;DHT22;55596;53.554;9.916;2022-08-01T13:52:41;29.90;51.00
17797;DHT22;55596;53.554;9.916;2022-08-01T13:55:09;30.00;56.70
17797;DHT22;55596;53.554;9.916;2022-08-01T13:57:37;29.20;56.30
17797;DHT22;55596;53.554;9.916;2022-08-01T14:00:06;28.80;57.60
17797;DHT22;55596;53.554;9.916;2022-08-01T14:02:33;28.90;58.10
17797;DHT22;55596;53.554;9.916;2022-08-01T14:05:00;29.50;54.60
17797;DHT22;55596;53.554;9.916;2022-08-01T14:07:27;30.20;55.40
17797;DHT22;55596;53.554;9.916;2022-08-01T14:09:54;31.00;54.20
17797;DHT22;55596;53.554;9.916;2022-08-01T14:12:21;30.80;52.70
17797;DHT22;55596;53.554;9.916;2022-08-01T14:14:50;30.90;53.70
17797;DHT22;55596;53.554;9.916;2022-08-01T14:17:17;30.70;48.90
17797;DHT22;55596;53.554;9.916;2022-08-01T14:19:44;30.80;50.00
17797;DHT22;55596;53.554;9.916;2022-08-01T14:22:10;31.00;53.00
17797;DHT22;55596;53.554;9.916;2022-08-01T14:24:37;31.10;51.60
17797;DHT22;55596;53.554;9.916;2022-08-01T14:27:04;31.10;54.50
17797;DHT22;55596;53.554;9.916;2022-08-01T14:29:31;30.60;50.40
17797;DHT22;55596;53.554;9.916;2022-08-01T14:31:59;30.30;50.20
17797;DHT22;55596;53.554;9.916;2022-08-01T14:34:26;30.30;55.50
17797;DHT22;55596;53.554;9.916;2022-08-01T14:36:54;29.20;52.20
17797;DHT22;55596;53.554;9.916;2022-08-01T14:39:21;30.10;52.00
17797;DHT22;55596;53.554;9.916;2022-08-01T14:41:48;30.60;54.70
17797;DHT22;55596;53.554;9.916;2022-08-01T14:44:16;30.20;54.60
17797;DHT22;55596;53.554;9.916;2022-08-01T14:46:43;30.20;54.20
17797;DHT22;55596;53.554;9.916;2022-08-01T14:49:12;30.20;54.40
17797;DHT22;55596;53.554;9.916;2022-08-01T14:51:39;30.20;50.70
17797;DHT22;55596;53.554;9.916;2022-08-01T14:54:06;30.20;55.70
17797;DHT22;55596;53.554;9.916;2022-08-01T14:56:33;30.70;56.50
17797;DHT22;55596;53.554;9.916;2022-08-01T14:59:00;30.90;52.70
17797;DHT22;55596;53.554;9.916;2022-08-01T15:01:27;31.10;51.70
17797;DHT22;55596;53.554;9.916;2022-08-01T15:03:54;30.90;45.20
17797;DHT22;55596;53.554;9.916;2022-08-01T15:06:23;31.50;52.10
17797;DHT22;55596;53.554;9.916;2022-08-01T15:08:50;31.10;49.20
17797;DHT22;55596;53.554;9.916;2022-08-01T15:11:17;31.30;52.50
17797;DHT22;55596;53.554;9.916;2022-08-01T15:13:44;31.30;45.50
17797;DHT22;55596;53.554;9.916;2022-08-01T15:16:31;31.50;47.60
17797;DHT22;55596;53.554;9.916;2022-08-01T15:18:58;30.90;53.00
17797;DHT22;55596;53.554;9.916;2022-08-01T15:21:26;30.50;52.80
17797;DHT22;55596;53.554;9.916;2022-08-01T15:23:53;31.20;54.60
17797;DHT22;55596;53.554;9.916;2022-08-01T15:26:20;31.30;52.50
17797;DHT22;55596;53.554;9.916;2022-08-01T15:28:47;30.70;52.20
17797;DHT22;55596;53.554;9.916;2022-08-01T15:31:14;30.30;45.80
17797;DHT22;55596;53.554;9.916;2022-08-01T15:33:41;30.40;47.80
17797;DHT22;55596;53.554;9.916;2022-08-01T15:36:08;30.80;52.80
17797;DHT22;55596;53.554;9.916;2022-08-01T15:38:36;31.00;48.80
17797;DHT22;55596;53.554;9.916;2022-08-01T15:41:03;29.90;48.90
17797;DHT22;55596;53.554;9.916;2022-08-01T15:43:30;29.90;55.00
17797;DHT22;55596;53.554;9.916;2022-08-01T15:45:57;30.30;54.10
17797;DHT22;55596;53.554;9.916;2022-08-01T15:48:25;30.50;53.60
17797;DHT22;55596;53.554;9.916;2022-08-01T15:50:52;30.10;46.10
17797;DHT22;55596;53.554;9.916;2022-08-01T15:53:20;30.30;46.40
17797;DHT22;55596;53.554;9.916;2022-08-01T15:55:48;30.60;50.80
17797;DHT22;55596;53.554;9.916;2022-08-01T15:58:15;30.90;53.70
17797;DHT22;55596;53.554;9.916;2022-08-01T16:00:42;31.30;52.50
17797;DHT22;55596;53.554;9.916;2022-08-01T16:03:09;31.70;50.70
17797;DHT22;55596;53.554;9.916;2022-08-01T16:05:36;32.40;47.00
17797;DHT22;55596;53.554;9.916;2022-08-01T16:08:03;31.70;51.40
17797;DHT22;55596;53.554;9.916;2022-08-01T16:10:30;32.10;51.90
17797;DHT22;55596;53.554;9.916;2022-08-01T16:12:59;32.40;47.50
17797;DHT22;55596;53.554;9.916;2022-08-01T16:15:26;32.90;51.90
17797;DHT22;55596;53.554;9.916;2022-08-01T16:17:52;32.90;50.30
17797;DHT22;55596;53.554;9.916;2022-08-01T16:20:19;31.70;51.70
17797;DHT22;55596;53.554;9.916;2022-08-01T16:22:46;30.30;51.20
17797;DHT22;55596;53.554;9.916;2022-08-01T16:25:13;29.20;55.90